地図

経路データ

SID SEASON NUMBER BASIN SUBBASIN NAME ISO_TIME NATURE LAT LON WMO_WIND WMO_PRES WMO_AGENCY TRACK_TYPE DIST2LAND LANDFALL IFLAG USA_AGENCY USA_ATCF_ID USA_LAT USA_LON USA_RECORD USA_STATUS USA_WIND USA_PRES USA_SSHS USA_R34_NE USA_R34_SE USA_R34_SW USA_R34_NW USA_R50_NE USA_R50_SE USA_R50_SW USA_R50_NW USA_R64_NE USA_R64_SE USA_R64_SW USA_R64_NW USA_POCI USA_ROCI USA_RMW USA_EYE TOKYO_LAT TOKYO_LON TOKYO_GRADE TOKYO_WIND TOKYO_PRES TOKYO_R50_DIR TOKYO_R50_LONG TOKYO_R50_SHORT TOKYO_R30_DIR TOKYO_R30_LONG TOKYO_R30_SHORT TOKYO_LAND CMA_LAT CMA_LON CMA_CAT CMA_WIND CMA_PRES HKO_LAT HKO_LON HKO_CAT HKO_WIND HKO_PRES NEWDELHI_LAT NEWDELHI_LON NEWDELHI_GRADE NEWDELHI_WIND NEWDELHI_PRES NEWDELHI_CI NEWDELHI_DP NEWDELHI_POCI REUNION_LAT REUNION_LON REUNION_TYPE REUNION_WIND REUNION_PRES REUNION_TNUM REUNION_CI REUNION_RMW REUNION_R34_NE REUNION_R34_SE REUNION_R34_SW REUNION_R34_NW REUNION_R50_NE REUNION_R50_SE REUNION_R50_SW REUNION_R50_NW REUNION_R64_NE REUNION_R64_SE REUNION_R64_SW REUNION_R64_NW BOM_LAT BOM_LON BOM_TYPE BOM_WIND BOM_PRES BOM_TNUM BOM_CI BOM_RMW BOM_R34_NE BOM_R34_SE BOM_R34_SW BOM_R34_NW BOM_R50_NE BOM_R50_SE BOM_R50_SW BOM_R50_NW BOM_R64_NE BOM_R64_SE BOM_R64_SW BOM_R64_NW BOM_ROCI BOM_POCI BOM_EYE BOM_POS_METHOD BOM_PRES_METHOD NADI_LAT NADI_LON NADI_CAT NADI_WIND NADI_PRES WELLINGTON_LAT WELLINGTON_LON WELLINGTON_WIND WELLINGTON_PRES DS824_LAT DS824_LON DS824_STAGE DS824_WIND DS824_PRES TD9636_LAT TD9636_LON TD9636_STAGE TD9636_WIND TD9636_PRES TD9635_LAT TD9635_LON TD9635_WIND TD9635_PRES TD9635_ROCI NEUMANN_LAT NEUMANN_LON NEUMANN_CLASS NEUMANN_WIND NEUMANN_PRES MLC_LAT MLC_LON MLC_CLASS MLC_WIND MLC_PRES USA_GUST BOM_GUST BOM_GUST_PER REUNION_GUST REUNION_GUST_PER USA_SEAHGT USA_SEARAD_NE USA_SEARAD_SE USA_SEARAD_SW USA_SEARAD_NW STORM_SPEED STORM_DIR
1931022S10054 1931 8 SI MM NOT_NAMED 1931-01-22 06:00:00 NR -10.0000 54.0000 reunion spur-merge 559 559 _____O________ -1 -10.0000 54.0000 99 9.90000 2 63
1931022S10054 1931 8 SI MM NOT_NAMED 1931-01-22 09:00:00 NR -9.94857 54.0974 spur-merge 574 574 _____P________ -1 -9.94857 54.0974 99 2 63
1931022S10054 1931 8 SI MM NOT_NAMED 1931-01-22 12:00:00 NR -9.90678 54.1830 spur-merge 583 583 _____P________ -1 -9.90678 54.1830 99 2 67
1931022S10054 1931 8 SI MM NOT_NAMED 1931-01-22 15:00:00 NR -9.88431 54.2454 spur-merge 583 583 _____P________ -1 -9.88431 54.2454 99 1 80
1931022S10054 1931 8 SI MM NOT_NAMED 1931-01-22 18:00:00 NR -9.89083 54.2728 spur-merge 592 592 _____P________ -1 -9.89083 54.2728 99 1 158
1931022S10054 1931 8 SI MM NOT_NAMED 1931-01-22 21:00:00 NR -9.93601 54.2537 spur-merge 592 576 _____P________ -1 -9.93601 54.2537 99 2 214
1931022S10054 1931 8 SI MM NOT_NAMED 1931-01-23 00:00:00 NR -10.0295 54.1764 spur-merge 576 545 _____P________ -1 -10.0295 54.1764 99 3 222
1931022S10054 1931 8 SI MM NOT_NAMED 1931-01-23 03:00:00 NR -10.1810 54.0292 spur-merge 545 515 _____P________ -1 -10.1810 54.0292 99 5 225
1931022S10054 1931 8 SI MM NOT_NAMED 1931-01-23 06:00:00 NR -10.4000 53.8000 reunion spur-merge 515 469 _____O________ -1 -10.4000 53.8000 99 9.90000 7 226
1931022S10054 1931 8 SI MM NOT_NAMED 1931-01-23 09:00:00 NR -10.6914 53.4818 spur-merge 469 414 _____P________ -1 -10.6914 53.4818 99 10 228
1931022S10054 1931 8 SI MM NOT_NAMED 1931-01-23 12:00:00 NR -11.0410 53.0870 spur-merge 414 353 _____P________ -1 -11.0410 53.0870 99 11 228
1931022S10054 1931 8 SI MM NOT_NAMED 1931-01-23 15:00:00 NR -11.4298 52.6329 spur-merge 343 283 _____P________ -1 -11.4298 52.6329 99 12 229
1931022S10054 1931 8 SI MM NOT_NAMED 1931-01-23 18:00:00 NR -11.8387 52.1374 spur-merge 274 205 _____P________ -1 -11.8387 52.1374 99 13 230
1931022S10054 1931 8 SI MM NOT_NAMED 1931-01-23 21:00:00 NR -12.2490 51.6181 spur-merge 205 137 _____P________ -1 -12.2490 51.6181 99 13 232
1931022S10054 1931 8 SI MM NOT_NAMED 1931-01-24 00:00:00 NR -12.6417 51.0932 spur-merge 137 75 _____P________ -1 -12.6417 51.0932 99 13 233
1931022S10054 1931 8 SI MM NOT_NAMED 1931-01-24 03:00:00 NR -12.9981 50.5810 spur-merge 75 15 _____P________ -1 -12.9981 50.5810 99 12 236
1931022S10054 1931 8 SI MM NOT_NAMED 1931-01-24 06:00:00 NR -13.3000 50.1000 reunion spur-merge 15 0 _____O________ -1 -13.3000 50.1000 99 9.90000 9 244
1931022S10054 1931 8 SI MM NOT_NAMED 1931-01-24 09:00:00 NR -13.3945 49.7367 spur-merge 0 0 _____P________ -1 -13.5336 49.6648 99 7 259
1931022S10054 1931 8 SI MM NOT_NAMED 1931-01-24 12:00:00 NR -13.4303 49.3993 spur-merge 0 0 _____P________ -1 -13.7036 49.2734 99 6 266
1931022S10054 1931 8 SI MM NOT_NAMED 1931-01-24 15:00:00 NR -13.4340 49.0804 spur-merge 0 0 _____P________ -1 -13.8192 48.9197 99 6 270
1931022S10054 1931 8 SI MM NOT_NAMED 1931-01-24 18:00:00 NR -13.4322 48.7728 spur-merge 0 0 _____P________ -1 -13.8897 48.5977 99 6 268
1931022S10054 1931 8 SI MM NOT_NAMED 1931-01-24 21:00:00 NR -13.4514 48.4688 spur-merge 0 0 _____P________ -1 -13.9240 48.3010 99 6 262
1931022S10054 1931 8 SI MM NOT_NAMED 1931-01-25 00:00:00 NR -13.5181 48.1606 spur-merge 15 0 _____P________ -1 -13.9312 48.0234 99 6 251
1931022S10054 1931 8 SI MM NOT_NAMED 1931-01-25 03:00:00 NR -13.6588 47.8404 spur-merge 10 10 _____P________ -1 -13.9202 47.7585 99 7 239
1931022S10054 1931 8 SI MM NOT_NAMED 1931-01-25 06:00:00 NR -13.9000 47.5000 reunion spur-merge 43 43 _____O________ -1 -13.9000 47.5000 99 9.90000 11 231
1931022S10054 1931 8 SI MM NOT_NAMED 1931-01-25 09:00:00 NR -14.3586 46.9505 spur-merge 62 59 ______________ -1 99 15 227
1931022S10054 1931 8 SI MM NOT_NAMED 1931-01-25 12:00:00 NR -14.9153 46.3612 spur-merge 59 39 ______________ -1 99 17 224
1931022S10054 1931 8 SI MM NOT_NAMED 1931-01-25 15:00:00 NR -15.5463 45.7671 spur-merge 39 0 ______________ -1 99 17 220
1931022S10054 1931 8 SI MM NOT_NAMED 1931-01-25 18:00:00 NR -16.2280 45.2040 spur-merge 0 0 ______________ -1 99 17 216
1931022S10054 1931 8 SI MM NOT_NAMED 1931-01-25 21:00:00 NR -16.9370 44.7082 spur-merge 0 0 ______________ -1 99 17 211
1931022S10054 1931 8 SI MM NOT_NAMED 1931-01-26 00:00:00 NR -17.6504 44.3169 spur-merge 0 0 ______________ -1 99 15 203
1931022S10054 1931 8 SI MM NOT_NAMED 1931-01-26 03:00:00 NR -18.3455 44.0680 spur-merge 0 ______________ -1 99 15 199

IBTrACS Databaseについて

本データベースは、米国NOAAが公開する1842年以降の世界の熱帯低気圧のベストトラックデータアーカイブInternational Best Track Archive for Climate Stewardship (IBTrACS)を、ウェブで閲覧しやすい形式に変換したものです。

最終更新日:2021-12-03